createdAt,value
2018-04-23T00:00:00.028Z,22.83
2018-04-23T00:00:40.555Z,22.83
2018-04-23T00:01:21.083Z,22.86
2018-04-23T00:02:01.586Z,22.82
2018-04-23T00:02:42.096Z,22.83
2018-04-23T00:03:22.614Z,22.79
2018-04-23T00:04:03.144Z,22.85
2018-04-23T00:04:43.659Z,22.8
2018-04-23T00:05:24.183Z,22.68
2018-04-23T00:06:04.693Z,22.67
2018-04-23T00:06:45.218Z,22.65
2018-04-23T00:07:25.728Z,22.61
2018-04-23T00:08:06.252Z,22.62
2018-04-23T00:08:46.776Z,22.6
2018-04-23T00:09:27.288Z,22.67
2018-04-23T00:10:07.824Z,22.61
2018-04-23T00:10:48.349Z,22.64
2018-04-23T00:11:28.898Z,22.67
2018-04-23T00:12:09.432Z,22.6
2018-04-23T00:12:49.943Z,22.67
2018-04-23T00:13:30.460Z,22.61
2018-04-23T00:14:10.980Z,22.7
2018-04-23T00:14:51.489Z,22.64
2018-04-23T00:15:32.019Z,22.65
2018-04-23T00:16:12.541Z,22.61
2018-04-23T00:16:53.064Z,22.6
2018-04-23T00:17:33.589Z,22.49
2018-04-23T00:18:14.112Z,22.58
2018-04-23T00:18:54.665Z,22.61
2018-04-23T00:19:35.198Z,22.58
2018-04-23T00:20:15.714Z,22.6
2018-04-23T00:20:56.240Z,22.6
2018-04-23T00:21:36.758Z,22.67
2018-04-23T00:22:17.298Z,22.57
2018-04-23T00:22:57.807Z,22.52
2018-04-23T00:23:38.352Z,22.49
2018-04-23T00:24:18.902Z,22.64
2018-04-23T00:24:59.413Z,22.65
2018-04-23T00:25:39.929Z,22.64
2018-04-23T00:26:20.439Z,22.57
2018-04-23T00:27:00.975Z,22.62
2018-04-23T00:27:41.518Z,22.55
2018-04-23T00:28:22.027Z,22.64
2018-04-23T00:29:02.532Z,22.62
2018-04-23T00:29:43.051Z,22.54
2018-04-23T00:30:23.571Z,22.49
2018-04-23T00:31:04.094Z,22.51
2018-04-23T00:31:44.638Z,22.55
2018-04-23T00:32:25.148Z,22.54
2018-04-23T00:33:05.659Z,22.54
2018-04-23T00:33:46.177Z,22.6
2018-04-23T00:34:26.693Z,22.58
2018-04-23T00:35:07.223Z,22.37
2018-04-23T00:35:47.730Z,22.31
2018-04-23T00:36:28.253Z,22.28
2018-04-23T00:37:08.781Z,22.35
2018-04-23T00:37:49.297Z,22.25
2018-04-23T00:38:29.812Z,22.36
2018-04-23T00:39:10.333Z,22.3
2018-04-23T00:39:50.852Z,22.46
2018-04-23T00:40:31.355Z,22.4
2018-04-23T00:41:11.862Z,22.4
2018-04-23T00:41:52.385Z,22.43
2018-04-23T00:42:32.920Z,22.28
2018-04-23T00:43:13.436Z,22.39
2018-04-23T00:43:53.985Z,22.35
2018-04-23T00:44:34.501Z,22.33
2018-04-23T00:45:15.029Z,22.43
2018-04-23T00:45:55.546Z,22.4
2018-04-23T00:46:36.066Z,22.42
2018-04-23T00:47:16.579Z,22.37
2018-04-23T00:47:57.097Z,22.31
2018-04-23T00:48:37.627Z,22.33
2018-04-23T00:49:18.137Z,22.46
2018-04-23T00:49:58.665Z,22.46
2018-04-23T00:50:39.173Z,22.39
2018-04-23T00:51:19.690Z,22.35
2018-04-23T00:52:00.238Z,22.35
2018-04-23T00:52:40.759Z,22.4
2018-04-23T00:53:21.284Z,22.43
2018-04-23T00:54:01.808Z,22.37
2018-04-23T00:54:42.329Z,22.4
2018-04-23T00:55:22.851Z,22.42
2018-04-23T00:56:03.381Z,22.46
2018-04-23T00:56:43.914Z,22.42
2018-04-23T00:57:24.432Z,22.52
2018-04-23T00:58:04.947Z,22.55
2018-04-23T00:58:45.470Z,22.42
2018-04-23T00:59:26.010Z,22.36
2018-04-23T01:00:06.533Z,22.37
2018-04-23T01:00:47.051Z,22.4
2018-04-23T01:01:27.579Z,22.4
2018-04-23T01:02:08.092Z,22.47
2018-04-23T01:02:48.627Z,22.45
2018-04-23T01:03:29.123Z,22.57
2018-04-23T01:04:09.643Z,22.43
2018-04-23T01:04:50.148Z,22.37
2018-04-23T01:05:30.676Z,22.45
2018-04-23T01:06:11.191Z,22.33
2018-04-23T01:06:51.700Z,22.39
2018-04-23T01:07:32.234Z,22.33
2018-04-23T01:08:12.751Z,22.3
2018-04-23T01:08:53.257Z,22.28
2018-04-23T01:09:33.772Z,22.25
2018-04-23T01:10:14.285Z,22.15
2018-04-23T01:10:54.812Z,22.2
2018-04-23T01:11:35.339Z,22.28
2018-04-23T01:12:15.857Z,22.3
2018-04-23T01:12:56.414Z,22.31
2018-04-23T01:13:36.925Z,22.3
2018-04-23T01:14:17.450Z,22.31
2018-04-23T01:14:57.967Z,22.3
2018-04-23T01:15:38.486Z,22.3
2018-04-23T01:16:19.005Z,22.28
2018-04-23T01:16:59.532Z,22.33
2018-04-23T01:17:40.043Z,22.3
2018-04-23T01:18:20.573Z,22.36
2018-04-23T01:19:01.090Z,22.2
2018-04-23T01:19:41.603Z,22.14
2018-04-23T01:20:22.115Z,22.22
2018-04-23T01:21:02.648Z,22.12
2018-04-23T01:21:43.173Z,22.14
2018-04-23T01:22:23.687Z,22.2
2018-04-23T01:23:04.223Z,22.14
2018-04-23T01:23:44.834Z,22.21
2018-04-23T01:24:25.386Z,22.14
2018-04-23T01:25:05.898Z,22.21
2018-04-23T01:25:46.415Z,22.15
2018-04-23T01:26:26.944Z,22.12
2018-04-23T01:27:07.470Z,22.12
2018-04-23T01:27:47.981Z,22.12
2018-04-23T01:28:28.502Z,22.1
2018-04-23T01:29:09.020Z,22.06
2018-04-23T01:29:49.564Z,22.1
2018-04-23T01:30:30.071Z,22.15
2018-04-23T01:31:10.583Z,22.1
2018-04-23T01:31:51.103Z,22.15
2018-04-23T01:32:31.609Z,22.06
2018-04-23T01:33:12.129Z,22.05
2018-04-23T01:33:52.648Z,22.06
2018-04-23T01:34:33.174Z,22.06
2018-04-23T01:35:13.692Z,22.03
2018-04-23T01:35:54.216Z,22.02
2018-04-23T01:36:34.740Z,22.17
2018-04-23T01:37:15.258Z,22.17
2018-04-23T01:37:55.778Z,22.18
2018-04-23T01:38:36.361Z,22.1
2018-04-23T01:39:16.917Z,22.06
2018-04-23T01:39:57.437Z,22.18
2018-04-23T01:40:37.967Z,22.14
2018-04-23T01:41:18.489Z,22.21
2018-04-23T01:41:59.009Z,22.2
2018-04-23T01:42:39.530Z,22.17
2018-04-23T01:43:20.058Z,22.21
2018-04-23T01:44:00.572Z,22.21
2018-04-23T01:44:41.082Z,22.15
2018-04-23T01:45:21.600Z,22.17
2018-04-23T01:46:02.128Z,22.2
2018-04-23T01:46:42.654Z,22.18
2018-04-23T01:47:23.158Z,22.2
2018-04-23T01:48:03.680Z,22.12
2018-04-23T01:48:44.177Z,22.1
2018-04-23T01:49:24.705Z,22.21
2018-04-23T01:50:05.241Z,22.14
2018-04-23T01:50:45.744Z,22.18
2018-04-23T01:51:26.273Z,22.15
2018-04-23T01:52:06.796Z,22.22
2018-04-23T01:52:47.322Z,22.17
2018-04-23T01:53:27.832Z,22.17
2018-04-23T01:54:08.355Z,22.22
2018-04-23T01:54:48.892Z,22.17
2018-04-23T01:55:29.402Z,22.18
2018-04-23T01:56:09.933Z,22.22
2018-04-23T01:56:50.444Z,22.18
2018-04-23T01:57:30.982Z,22.22
2018-04-23T01:58:11.483Z,22.12
2018-04-23T01:58:51.986Z,22.14
2018-04-23T01:59:32.522Z,22.21
2018-04-23T02:00:13.042Z,22.15
2018-04-23T02:00:53.564Z,22.18
2018-04-23T02:01:34.105Z,22.17
2018-04-23T02:02:14.614Z,22.18
2018-04-23T02:02:55.143Z,22.21
2018-04-23T02:03:35.662Z,22.31
2018-04-23T02:04:16.169Z,22.15
2018-04-23T02:04:56.690Z,22.15
2018-04-23T02:05:37.206Z,22.17
2018-04-23T02:06:17.721Z,22.21
2018-04-23T02:06:58.239Z,22.17
2018-04-23T02:07:38.775Z,22.17
2018-04-23T02:08:19.294Z,22.18
2018-04-23T02:08:59.778Z,22.22
2018-04-23T02:09:40.300Z,22.22
2018-04-23T02:10:20.815Z,22.24
2018-04-23T02:11:01.327Z,22.12
2018-04-23T02:11:41.867Z,22.1
2018-04-23T02:12:22.379Z,22.17
2018-04-23T02:13:02.900Z,22.21
2018-04-23T02:13:43.423Z,22.15
2018-04-23T02:14:23.948Z,22.12
2018-04-23T02:15:04.455Z,22.12
2018-04-23T02:15:44.973Z,22.17
2018-04-23T02:16:25.482Z,22.15
2018-04-23T02:17:06.003Z,22.14
2018-04-23T02:17:46.535Z,22.1
2018-04-23T02:18:27.062Z,22
2018-04-23T02:19:07.583Z,21.98
2018-04-23T02:19:48.109Z,22.02
2018-04-23T02:20:28.647Z,22
2018-04-23T02:21:09.165Z,21.94
2018-04-23T02:21:49.679Z,21.92
2018-04-23T02:22:30.215Z,22
2018-04-23T02:23:10.715Z,21.98
2018-04-23T02:23:51.239Z,22.02
2018-04-23T02:24:31.765Z,21.96
2018-04-23T02:25:12.288Z,22
2018-04-23T02:25:52.796Z,21.92
2018-04-23T02:26:33.302Z,21.83
2018-04-23T02:27:13.822Z,21.91
2018-04-23T02:27:54.372Z,21.94
2018-04-23T02:28:34.872Z,21.91
2018-04-23T02:29:15.381Z,21.91
2018-04-23T02:29:55.907Z,21.99
2018-04-23T02:30:36.427Z,21.94
2018-04-23T02:31:16.948Z,21.92
2018-04-23T02:31:57.471Z,21.99
2018-04-23T02:32:38.049Z,21.98
2018-04-23T02:33:18.576Z,21.96
2018-04-23T02:33:59.087Z,21.9
2018-04-23T02:34:39.600Z,21.88
2018-04-23T02:35:20.126Z,21.96
2018-04-23T02:36:00.640Z,21.92
2018-04-23T02:36:41.167Z,21.92
2018-04-23T02:37:21.684Z,21.88
2018-04-23T02:38:02.211Z,21.94
2018-04-23T02:38:42.739Z,21.88
2018-04-23T02:39:23.279Z,21.98
2018-04-23T02:40:03.780Z,21.92
2018-04-23T02:40:44.298Z,21.96
2018-04-23T02:41:24.818Z,21.94
2018-04-23T02:42:05.334Z,21.91
2018-04-23T02:42:45.862Z,21.99
2018-04-23T02:43:26.369Z,21.91
2018-04-23T02:44:06.869Z,21.9
2018-04-23T02:44:47.386Z,21.9
2018-04-23T02:45:27.905Z,21.96
2018-04-23T02:46:08.421Z,21.91
2018-04-23T02:46:48.948Z,21.98
2018-04-23T02:47:29.469Z,21.84
2018-04-23T02:48:09.987Z,21.83
2018-04-23T02:48:50.509Z,21.98
2018-04-23T02:49:31.033Z,21.94
2018-04-23T02:50:11.562Z,21.8
2018-04-23T02:50:52.077Z,21.83
2018-04-23T02:51:32.584Z,21.94
2018-04-23T02:52:13.116Z,21.8
2018-04-23T02:52:53.649Z,21.82
2018-04-23T02:53:34.192Z,21.77
2018-04-23T02:54:14.722Z,21.79
2018-04-23T02:54:55.247Z,21.84
2018-04-23T02:55:35.768Z,21.88
2018-04-23T02:56:16.290Z,21.84
2018-04-23T02:56:56.805Z,21.9
2018-04-23T02:57:37.303Z,21.88
2018-04-23T02:58:17.833Z,21.82
2018-04-23T02:58:58.352Z,21.83
2018-04-23T02:59:38.877Z,21.79
2018-04-23T03:00:19.366Z,21.84
2018-04-23T03:00:59.867Z,21.77
2018-04-23T03:01:40.388Z,21.74
2018-04-23T03:02:20.916Z,21.71
2018-04-23T03:03:01.431Z,21.79
2018-04-23T03:03:41.957Z,21.74
2018-04-23T03:04:22.469Z,21.82
2018-04-23T03:05:02.996Z,21.75
2018-04-23T03:05:43.512Z,21.84
2018-04-23T03:06:24.033Z,21.75
2018-04-23T03:07:04.553Z,21.8
2018-04-23T03:07:45.081Z,21.69
2018-04-23T03:08:25.595Z,21.82
2018-04-23T03:09:06.124Z,21.82
2018-04-23T03:09:46.637Z,21.77
2018-04-23T03:10:27.156Z,21.79
2018-04-23T03:11:07.686Z,21.75
2018-04-23T03:11:48.209Z,21.72
2018-04-23T03:12:28.727Z,21.69
2018-04-23T03:13:09.240Z,21.72
2018-04-23T03:13:49.772Z,21.79
2018-04-23T03:14:30.285Z,21.75
2018-04-23T03:15:10.808Z,21.75
2018-04-23T03:15:51.334Z,21.71
2018-04-23T03:16:31.852Z,21.64
2018-04-23T03:17:12.377Z,21.68
2018-04-23T03:17:52.895Z,21.68
2018-04-23T03:18:33.425Z,21.64
2018-04-23T03:19:13.938Z,21.64
2018-04-23T03:19:54.453Z,21.61
2018-04-23T03:20:34.972Z,21.62
2018-04-23T03:21:15.479Z,21.62
2018-04-23T03:21:55.997Z,21.5
2018-04-23T03:22:36.497Z,21.58
2018-04-23T03:23:17.028Z,21.58
2018-04-23T03:23:57.540Z,21.62
2018-04-23T03:24:38.062Z,21.67
2018-04-23T03:25:18.592Z,21.65
2018-04-23T03:25:59.106Z,21.46
2018-04-23T03:26:39.627Z,21.47
2018-04-23T03:27:20.152Z,21.5
2018-04-23T03:28:00.664Z,21.44
2018-04-23T03:28:41.191Z,21.5
2018-04-23T03:29:21.733Z,21.52
2018-04-23T03:30:02.260Z,21.58
2018-04-23T03:30:42.773Z,21.5
2018-04-23T03:31:23.296Z,21.53
2018-04-23T03:32:03.882Z,21.52
2018-04-23T03:32:44.407Z,21.53
2018-04-23T03:33:24.933Z,21.58
2018-04-23T03:34:05.448Z,21.59
2018-04-23T03:34:45.973Z,21.58
2018-04-23T03:35:26.496Z,21.62
2018-04-23T03:36:07.024Z,21.59
2018-04-23T03:36:47.538Z,21.64
2018-04-23T03:37:28.049Z,21.56
2018-04-23T03:38:08.566Z,21.56
2018-04-23T03:38:49.096Z,21.58
2018-04-23T03:39:29.613Z,21.65
2018-04-23T03:40:10.120Z,21.62
2018-04-23T03:40:50.650Z,21.65
2018-04-23T03:41:31.172Z,21.68
2018-04-23T03:42:11.692Z,21.64
2018-04-23T03:42:52.202Z,21.61
2018-04-23T03:43:32.737Z,21.49
2018-04-23T03:44:13.255Z,21.61
2018-04-23T03:44:53.768Z,21.54
2018-04-23T03:45:34.296Z,21.61
2018-04-23T03:46:14.820Z,21.46
2018-04-23T03:46:55.341Z,21.5
2018-04-23T03:47:35.875Z,21.59
2018-04-23T03:48:16.393Z,21.56
2018-04-23T03:48:56.914Z,21.49
2018-04-23T03:49:37.421Z,21.59
2018-04-23T03:50:17.931Z,21.72
2018-04-23T03:50:58.457Z,21.64
2018-04-23T03:51:38.980Z,21.53
2018-04-23T03:52:19.508Z,21.64
2018-04-23T03:53:00.033Z,21.64
2018-04-23T03:53:40.552Z,21.62
2018-04-23T03:54:21.075Z,21.67
2018-04-23T03:55:01.594Z,21.65
2018-04-23T03:55:42.145Z,21.64
2018-04-23T03:56:22.673Z,21.64
2018-04-23T03:57:03.208Z,21.64
2018-04-23T03:57:43.800Z,21.62
2018-04-23T03:58:24.261Z,21.64
2018-04-23T03:59:04.790Z,21.69
2018-04-23T03:59:45.311Z,21.65
2018-04-23T04:00:25.828Z,21.69
2018-04-23T04:01:06.380Z,21.75
2018-04-23T04:01:46.885Z,21.69
2018-04-23T04:02:27.419Z,21.67
2018-04-23T04:03:07.936Z,21.56
2018-04-23T04:03:48.453Z,21.61
2018-04-23T04:04:28.992Z,21.67
2018-04-23T04:05:09.518Z,21.69
2018-04-23T04:05:50.035Z,21.69
2018-04-23T04:06:30.552Z,21.65
2018-04-23T04:07:11.074Z,21.72
2018-04-23T04:07:51.600Z,21.65
2018-04-23T04:08:32.129Z,21.64
2018-04-23T04:09:12.657Z,21.64
2018-04-23T04:09:53.174Z,21.61
2018-04-23T04:10:33.707Z,21.58
2018-04-23T04:11:14.226Z,21.67
2018-04-23T04:11:54.756Z,21.62
2018-04-23T04:12:35.272Z,21.5
2018-04-23T04:13:15.793Z,21.67
2018-04-23T04:13:56.314Z,21.61
2018-04-23T04:14:36.826Z,21.59
2018-04-23T04:15:17.364Z,21.59
2018-04-23T04:15:57.872Z,21.59
2018-04-23T04:16:38.384Z,21.52
2018-04-23T04:17:18.907Z,21.56
2018-04-23T04:17:59.420Z,21.61
2018-04-23T04:18:39.965Z,21.64
2018-04-23T04:19:20.478Z,21.64
2018-04-23T04:20:00.983Z,21.64
2018-04-23T04:20:41.506Z,21.64
2018-04-23T04:21:22.023Z,21.61
2018-04-23T04:22:02.537Z,21.61
2018-04-23T04:22:43.057Z,21.64
2018-04-23T04:23:23.573Z,21.54
2018-04-23T04:24:04.094Z,21.49
2018-04-23T04:24:44.647Z,21.64
2018-04-23T04:25:25.131Z,21.59
2018-04-23T04:26:05.666Z,21.62
2018-04-23T04:26:46.174Z,21.58
2018-04-23T04:27:26.693Z,21.58
2018-04-23T04:28:07.222Z,21.49
2018-04-23T04:28:47.758Z,21.58
2018-04-23T04:29:28.281Z,21.47
2018-04-23T04:30:08.798Z,21.46
2018-04-23T04:30:49.317Z,21.49
2018-04-23T04:31:29.821Z,21.46
2018-04-23T04:32:10.348Z,21.54
2018-04-23T04:32:50.862Z,21.49
2018-04-23T04:33:31.379Z,21.42
2018-04-23T04:34:11.894Z,21.46
2018-04-23T04:34:52.412Z,21.53
2018-04-23T04:35:32.975Z,21.46
2018-04-23T04:36:13.508Z,21.46
2018-04-23T04:36:54.007Z,21.49
2018-04-23T04:37:34.534Z,21.49
2018-04-23T04:38:15.114Z,21.46
2018-04-23T04:38:55.587Z,21.59
2018-04-23T04:39:36.106Z,21.49
2018-04-23T04:40:16.641Z,21.53
2018-04-23T04:40:57.169Z,21.49
2018-04-23T04:41:37.692Z,21.44
2018-04-23T04:42:18.216Z,21.5
2018-04-23T04:42:58.727Z,21.65
2018-04-23T04:43:39.245Z,21.59
2018-04-23T04:44:19.754Z,21.65
2018-04-23T04:45:00.290Z,21.54
2018-04-23T04:45:40.815Z,21.65
2018-04-23T04:46:21.326Z,21.65
2018-04-23T04:47:01.838Z,21.67
2018-04-23T04:47:42.361Z,21.72
2018-04-23T04:48:22.888Z,21.69
2018-04-23T04:49:03.417Z,21.72
2018-04-23T04:49:43.934Z,21.86
2018-04-23T04:50:24.463Z,21.82
2018-04-23T04:51:04.980Z,21.83
2018-04-23T04:51:45.479Z,21.82
2018-04-23T04:52:26.018Z,21.9
2018-04-23T04:53:06.565Z,21.91
2018-04-23T04:53:47.081Z,21.99
2018-04-23T04:54:27.630Z,21.79
2018-04-23T04:55:08.146Z,21.92
2018-04-23T04:55:48.671Z,21.9
2018-04-23T04:56:29.189Z,21.88
2018-04-23T04:57:09.700Z,21.99
2018-04-23T04:57:50.239Z,21.91
2018-04-23T04:58:30.756Z,21.98
2018-04-23T04:59:11.290Z,22.03
2018-04-23T04:59:51.806Z,21.99
2018-04-23T05:00:32.327Z,22.02
2018-04-23T05:01:12.872Z,22.14
2018-04-23T05:01:53.390Z,22.22
2018-04-23T05:02:33.911Z,22.18
2018-04-23T05:03:14.420Z,22.17
2018-04-23T05:03:54.905Z,22.14
2018-04-23T05:04:35.438Z,22.28
2018-04-23T05:05:15.964Z,22.28
2018-04-23T05:05:56.504Z,22.28
2018-04-23T05:06:37.003Z,22.31
2018-04-23T05:07:17.561Z,22.36
2018-04-23T05:07:58.049Z,22.28
2018-04-23T05:08:38.535Z,22.28
2018-04-23T05:09:19.010Z,22.35
2018-04-23T05:09:59.528Z,22.3
2018-04-23T05:10:40.049Z,22.33
2018-04-23T05:11:20.563Z,22.33
2018-04-23T05:12:01.084Z,22.28
2018-04-23T05:12:41.587Z,22.3
2018-04-23T05:13:22.115Z,22.3
2018-04-23T05:14:02.624Z,22.33
2018-04-23T05:14:43.152Z,22.36
2018-04-23T05:15:23.684Z,22.31
2018-04-23T05:16:04.211Z,22.42
2018-04-23T05:16:44.704Z,22.46
2018-04-23T05:17:25.225Z,22.31
2018-04-23T05:18:05.752Z,22.31
2018-04-23T05:18:46.264Z,22.36
2018-04-23T05:19:26.778Z,22.52
2018-04-23T05:20:07.306Z,22.55
2018-04-23T05:20:47.823Z,22.62
2018-04-23T05:21:28.366Z,22.58
2018-04-23T05:22:08.881Z,22.55
2018-04-23T05:22:49.404Z,22.62
2018-04-23T05:23:29.912Z,22.57
2018-04-23T05:24:10.446Z,22.61
2018-04-23T05:24:50.989Z,22.7
2018-04-23T05:25:31.514Z,22.7
2018-04-23T05:26:12.054Z,22.68
2018-04-23T05:26:52.580Z,22.68
2018-04-23T05:27:33.100Z,22.61
2018-04-23T05:28:13.715Z,22.7
2018-04-23T05:28:54.225Z,22.67
2018-04-23T05:29:34.747Z,22.72
2018-04-23T05:30:15.299Z,22.73
2018-04-23T05:30:55.780Z,22.73
2018-04-23T05:31:36.309Z,22.76
2018-04-23T05:32:16.835Z,22.82
2018-04-23T05:32:57.363Z,22.83
2018-04-23T05:33:37.881Z,22.68
2018-04-23T05:34:18.399Z,22.76
2018-04-23T05:34:58.936Z,22.68
2018-04-23T05:35:39.443Z,22.8
2018-04-23T05:36:19.960Z,22.76
2018-04-23T05:37:00.496Z,22.7
2018-04-23T05:37:41.057Z,22.7
2018-04-23T05:38:21.565Z,22.64
2018-04-23T05:40:19.716Z,22.55
2018-04-23T05:41:00.216Z,22.54
2018-04-23T05:41:40.745Z,22.51
2018-04-23T05:42:21.269Z,22.51
2018-04-23T05:43:01.804Z,22.45
2018-04-23T05:43:42.315Z,22.35
2018-04-23T05:44:22.853Z,22.28
2018-04-23T05:45:03.365Z,22.33
2018-04-23T05:45:43.907Z,22.31
2018-04-23T05:46:24.460Z,22.27
2018-04-23T05:47:04.956Z,22.37
2018-04-23T05:47:45.453Z,22.31
2018-04-23T05:48:25.971Z,22.28
2018-04-23T05:49:06.485Z,22.36
2018-04-23T05:49:47.019Z,22.28
2018-04-23T05:50:27.517Z,22.22
2018-04-23T05:51:08.041Z,22.21
2018-04-23T05:51:48.590Z,22.24
2018-04-23T05:52:29.176Z,22.18
2018-04-23T05:53:09.706Z,22.3
2018-04-23T05:53:50.223Z,22.28
2018-04-23T05:54:30.744Z,22.33
2018-04-23T05:55:11.268Z,22.33
2018-04-23T05:55:51.775Z,22.42
2018-04-23T05:56:32.287Z,22.37
2018-04-23T05:57:12.817Z,22.55
2018-04-23T05:57:53.327Z,22.55
2018-04-23T05:58:33.902Z,22.55
2018-04-23T05:59:14.425Z,22.64
2018-04-23T05:59:54.954Z,22.72
2018-04-23T06:00:35.457Z,22.75
2018-04-23T06:01:15.984Z,22.86
2018-04-23T06:01:56.503Z,22.88
2018-04-23T06:02:37.038Z,22.88
2018-04-23T06:03:17.544Z,22.86
2018-04-23T06:03:58.057Z,22.95
2018-04-23T06:04:38.569Z,23.15
2018-04-23T06:05:19.093Z,23.1
2018-04-23T06:05:59.600Z,23.16
2018-04-23T06:06:40.121Z,23.2
2018-04-23T06:07:20.635Z,23.25
2018-04-23T06:08:01.163Z,23.28
2018-04-23T06:08:41.681Z,23.32
2018-04-23T06:09:22.213Z,23.27
2018-04-23T06:10:02.733Z,23.38
2018-04-23T06:10:43.238Z,23.36
2018-04-23T06:11:23.769Z,23.35
2018-04-23T06:12:04.283Z,23.43
2018-04-23T06:12:44.809Z,23.38
2018-04-23T06:13:25.337Z,23.42
2018-04-23T06:14:05.879Z,23.57
2018-04-23T06:14:46.401Z,23.72
2018-04-23T06:15:26.959Z,23.79
2018-04-23T06:16:07.479Z,23.8
2018-04-23T06:16:48.003Z,23.73
2018-04-23T06:17:28.525Z,23.87
2018-04-23T06:18:09.046Z,23.95
2018-04-23T06:18:49.675Z,23.87
2018-04-23T06:19:30.188Z,23.93
2018-04-23T06:20:10.717Z,23.98
2018-04-23T06:20:51.308Z,23.85
2018-04-23T06:21:31.833Z,23.88
2018-04-23T06:22:12.396Z,23.79
2018-04-23T06:22:52.921Z,23.83
2018-04-23T06:23:33.453Z,23.97
2018-04-23T06:24:14.075Z,24.03
2018-04-23T06:24:54.524Z,24.05
2018-04-23T06:25:35.063Z,24.02
2018-04-23T06:26:15.596Z,23.95
2018-04-23T06:26:56.113Z,23.87
2018-04-23T06:27:36.626Z,23.97
2018-04-23T06:28:17.155Z,23.85
2018-04-23T06:28:57.682Z,23.79
2018-04-23T06:29:38.187Z,23.83
2018-04-23T06:30:18.711Z,23.72
2018-04-23T06:30:59.234Z,23.58
2018-04-23T06:31:39.754Z,23.47
2018-04-23T06:32:20.269Z,23.36
2018-04-23T06:33:00.795Z,23.36
2018-04-23T06:33:41.337Z,23.35
2018-04-23T06:34:21.851Z,23.25
2018-04-23T06:35:02.380Z,23.25
2018-04-23T06:35:42.902Z,23.17
2018-04-23T06:36:23.413Z,23.16
2018-04-23T06:37:03.939Z,23.13
2018-04-23T06:37:44.456Z,23.12
2018-04-23T06:38:24.967Z,23.15
2018-04-23T06:39:05.486Z,22.97
2018-04-23T06:39:46.007Z,22.86
2018-04-23T06:40:26.531Z,22.98
2018-04-23T06:41:07.065Z,22.98
2018-04-23T06:41:47.596Z,22.95
2018-04-23T06:42:28.130Z,22.83
2018-04-23T06:43:08.659Z,22.72
2018-04-23T06:43:49.177Z,22.73
2018-04-23T06:44:29.689Z,22.62
2018-04-23T06:45:10.199Z,22.64
2018-04-23T06:45:50.723Z,22.65
2018-04-23T06:46:31.248Z,22.67
2018-04-23T06:47:11.756Z,22.73
2018-04-23T06:47:52.280Z,22.8
2018-04-23T06:48:32.796Z,22.79
2018-04-23T06:49:13.321Z,22.8
2018-04-23T06:49:53.814Z,22.95
2018-04-23T06:50:34.360Z,22.8
2018-04-23T06:51:14.865Z,22.97
2018-04-23T06:51:55.380Z,22.97
2018-04-23T06:52:35.895Z,22.86
2018-04-23T06:53:16.418Z,22.76
2018-04-23T06:53:56.929Z,22.88
2018-04-23T06:54:37.486Z,22.73
2018-04-23T06:55:18.030Z,22.79
2018-04-23T06:55:58.553Z,22.8
2018-04-23T06:56:39.078Z,22.82
2018-04-23T06:57:19.603Z,22.76
2018-04-23T06:58:00.125Z,22.7
2018-04-23T06:58:40.633Z,22.55
2018-04-23T06:59:21.155Z,22.55
2018-04-23T07:00:02.607Z,22.6
2018-04-23T07:00:43.120Z,22.67
2018-04-23T07:01:23.661Z,22.62
2018-04-23T07:02:04.178Z,22.6
2018-04-23T07:02:44.704Z,22.67
2018-04-23T07:03:25.216Z,22.62
2018-04-23T07:04:05.725Z,22.58
2018-04-23T07:04:46.248Z,22.54
2018-04-23T07:05:26.791Z,22.57
2018-04-23T07:06:07.303Z,22.54
2018-04-23T07:06:47.823Z,22.28
2018-04-23T07:07:28.357Z,22.33
2018-04-23T07:08:08.865Z,22.27
2018-04-23T07:08:49.389Z,22.28
2018-04-23T07:09:29.903Z,22.42
2018-04-23T07:10:10.441Z,22.4
2018-04-23T07:10:50.962Z,22.51
2018-04-23T07:11:31.495Z,22.46
2018-04-23T07:12:12.027Z,22.33
2018-04-23T07:12:52.537Z,22.25
2018-04-23T07:13:33.063Z,22.45
2018-04-23T07:14:13.574Z,22.28
2018-04-23T07:14:54.086Z,22.4
2018-04-23T07:15:34.598Z,22.4
2018-04-23T07:16:15.116Z,22.37
2018-04-23T07:16:55.635Z,22.28
2018-04-23T07:17:36.151Z,22.28
2018-04-23T07:18:16.676Z,22.2
2018-04-23T07:18:57.184Z,22.14
2018-04-23T07:19:37.690Z,22.03
2018-04-23T07:20:18.210Z,22.14
2018-04-23T07:20:58.741Z,22.06
2018-04-23T07:21:39.259Z,21.94
2018-04-23T07:22:19.786Z,21.92
2018-04-23T07:23:00.310Z,21.83
2018-04-23T07:23:40.825Z,21.79
2018-04-23T07:24:21.351Z,21.82
2018-04-23T07:25:01.887Z,21.92
2018-04-23T07:25:42.409Z,21.9
2018-04-23T07:26:22.947Z,21.91
2018-04-23T07:27:03.468Z,22.06
2018-04-23T07:27:43.979Z,21.94
2018-04-23T07:28:24.514Z,22.02
2018-04-23T07:29:05.031Z,21.96
2018-04-23T07:29:45.552Z,21.94
2018-04-23T07:30:26.072Z,21.98
2018-04-23T07:31:06.595Z,21.92
2018-04-23T07:31:47.099Z,21.9
2018-04-23T07:32:27.633Z,21.96
2018-04-23T07:33:08.154Z,21.99
2018-04-23T07:33:48.692Z,21.9
2018-04-23T07:34:29.225Z,21.99
2018-04-23T07:35:09.752Z,22.02
2018-04-23T07:35:50.285Z,21.99
2018-04-23T07:36:30.802Z,21.94
2018-04-23T07:37:11.345Z,21.98
2018-04-23T07:37:51.866Z,21.92
2018-04-23T07:38:32.399Z,21.84
2018-04-23T07:39:12.919Z,21.9
2018-04-23T07:39:53.439Z,21.91
2018-04-23T07:40:33.974Z,21.86
2018-04-23T07:41:14.495Z,21.83
2018-04-23T07:41:55.014Z,21.9
2018-04-23T07:42:35.531Z,21.98
2018-04-23T07:43:16.053Z,21.79
2018-04-23T07:43:56.607Z,21.92
2018-04-23T07:44:37.105Z,22.03
2018-04-23T07:45:17.629Z,21.83
2018-04-23T07:45:58.150Z,22
2018-04-23T07:46:38.664Z,22.02
2018-04-23T07:47:19.203Z,21.82
2018-04-23T07:47:59.717Z,21.68
2018-04-23T07:48:40.242Z,21.92
2018-04-23T07:49:20.767Z,22.02
2018-04-23T07:50:01.319Z,21.98
2018-04-23T07:50:41.909Z,21.84
2018-04-23T07:51:22.545Z,22.02
2018-04-23T07:52:03.057Z,22.2
2018-04-23T07:52:43.558Z,22.3
2018-04-23T07:53:24.078Z,22.2
2018-04-23T07:54:04.618Z,22.17
2018-04-23T07:54:45.109Z,22.22
2018-04-23T07:55:25.649Z,22.31
2018-04-23T07:56:06.158Z,22.35
2018-04-23T07:56:46.679Z,22.3
2018-04-23T07:57:27.211Z,22.33
2018-04-23T07:58:07.712Z,22.3
2018-04-23T07:58:48.810Z,22.33
2018-04-23T07:59:29.329Z,22.39
2018-04-23T08:00:09.847Z,22.3
2018-04-23T08:00:50.403Z,22.35
2018-04-23T08:01:30.913Z,22.28
2018-04-23T08:02:11.416Z,22.31
2018-04-23T08:02:51.939Z,22.36
2018-04-23T08:03:32.454Z,22.36
2018-04-23T08:04:12.979Z,22.33
2018-04-23T08:04:53.529Z,22.2
2018-04-23T08:05:34.055Z,22.18
2018-04-23T08:06:14.575Z,22.2
2018-04-23T08:06:55.193Z,22.18
2018-04-23T08:07:35.620Z,22.24
2018-04-23T08:08:16.143Z,22.31
2018-04-23T08:08:56.657Z,22.43
2018-04-23T08:09:37.182Z,22.45
2018-04-23T08:10:17.691Z,22.43
2018-04-23T08:10:58.208Z,22.43
2018-04-23T08:11:38.733Z,22.42
2018-04-23T08:12:19.366Z,22.42
2018-04-23T08:12:59.774Z,22.49
2018-04-23T08:13:40.295Z,22.49
2018-04-23T08:14:20.815Z,22.33
2018-04-23T08:15:01.325Z,22.35
2018-04-23T08:15:41.848Z,22.39
2018-04-23T08:16:22.364Z,22.47
2018-04-23T08:17:02.909Z,22.35
2018-04-23T08:17:43.397Z,22.49
2018-04-23T08:18:23.934Z,22.55
2018-04-23T08:19:04.468Z,22.45
2018-04-23T08:19:45.049Z,22.36
2018-04-23T08:20:25.533Z,22.3
2018-04-23T08:21:06.036Z,22.42
2018-04-23T08:21:46.598Z,22.28
2018-04-23T08:22:27.114Z,22.33
2018-04-23T08:23:07.628Z,22.31
2018-04-23T08:23:48.156Z,22.28
2018-04-23T08:24:28.680Z,22.17
2018-04-23T08:25:09.187Z,22.31
2018-04-23T08:25:49.694Z,22.36
2018-04-23T08:26:30.235Z,22.46
2018-04-23T08:27:10.755Z,22.52
2018-04-23T08:27:51.271Z,22.58
2018-04-23T08:28:31.787Z,22.62
2018-04-23T08:29:12.301Z,22.62
2018-04-23T08:29:52.825Z,22.64
2018-04-23T08:30:33.346Z,22.68
2018-04-23T08:31:13.858Z,22.67
2018-04-23T08:31:54.421Z,22.65
2018-04-23T08:32:34.898Z,22.72
2018-04-23T08:33:15.428Z,22.8
2018-04-23T08:33:55.957Z,22.8
2018-04-23T08:34:36.480Z,22.86
2018-04-23T08:35:17.012Z,22.83
2018-04-23T08:35:57.551Z,22.92
2018-04-23T08:36:38.073Z,23
2018-04-23T08:37:18.605Z,23.1
2018-04-23T08:37:59.128Z,22.91
2018-04-23T08:38:39.645Z,22.98
2018-04-23T08:39:20.167Z,22.92
2018-04-23T08:40:00.696Z,23.01
2018-04-23T08:40:41.223Z,23.09
2018-04-23T08:41:21.739Z,23.13
2018-04-23T08:42:02.257Z,23.17
2018-04-23T08:42:42.797Z,23.27
2018-04-23T08:43:23.309Z,23.13
2018-04-23T08:44:03.823Z,23.1
2018-04-23T08:44:44.343Z,23.12
2018-04-23T08:45:24.879Z,23.13